This is the latest recevied weather packets stored in our database for station/object WP3OF-5. If no packets are shown the sender has not sent any weather packets the latest 10 day(s).
| Time | Temp. | Humidity | Pressure | Rain* | Wind** | Luminosity | Snow |
|---|---|---|---|---|---|---|---|
| 1777957162 | 20.56° C | 96% | 1017.3 hPa | 0 mm | - | - | - |
| 1777956859 | 20.56° C | 96% | 1017.2 hPa | 0 mm | - | - | - |
| 1777956555 | 20.56° C | 96% | 1017.2 hPa | 0 mm | - | - | - |
| 1777956253 | 21.11° C | 96% | 1017.3 hPa | 0 mm | - | - | - |
| 1777955949 | 21.11° C | 96% | 1017.2 hPa | 0 mm | - | - | - |
| 1777955645 | 21.11° C | 96% | 1017.2 hPa | 0 mm | - | - | - |
| 1777955342 | 21.11° C | 96% | 1017.2 hPa | 0 mm | - | - | - |
| 1777955039 | 21.11° C | 95% | 1017.3 hPa | 0 mm | - | - | - |
| 1777954735 | 21.11° C | 95% | 1017.2 hPa | 0 mm | - | - | - |
| 1777954433 | 21.11° C | 95% | 1017.3 hPa | 0 mm | - | - | - |
| 1777954130 | 21.11° C | 95% | 1017.3 hPa | 0 mm | - | - | - |
| 1777953828 | 21.11° C | 95% | 1017.3 hPa | 0 mm | - | - | - |
| 1777953524 | 21.11° C | 95% | 1017.3 hPa | 0 mm | - | - | - |
| 1777943522 | 22.78° C | 91% | 1016.9 hPa | 0 mm | - | - | - |
| 1777942914 | 22.78° C | 91% | 1017 hPa | 0 mm | - | - | - |
| 1777942610 | 22.78° C | 91% | 1016.9 hPa | 0 mm | - | - | - |
| 1777940490 | 23.89° C | 87% | 1016.7 hPa | 0 mm | - | - | - |
| 1777939884 | 24.44° C | 86% | 1016.2 hPa | 0 mm | - | - | - |
| 1777939581 | 24.44° C | 85% | 1016.3 hPa | 0 mm | - | - | - |
| 1777938672 | 25° C | 82% | 1016.2 hPa | 0 mm | - | - | - |
| 1777934731 | 27.22° C | 71% | 1015.8 hPa | 0 mm | - | - | - |
| 1777929272 | 30° C | 58% | 1014.9 hPa | 0 mm | - | - | - |
| 1777928970 | 30.56° C | 56% | 1015.1 hPa | 0 mm | - | - | - |
| 1777925034 | 31.11° C | 52% | 1014.7 hPa | 0 mm | - | - | - |
| 1777924731 | 31.11° C | 51% | 1014.7 hPa | 0 mm | - | - | - |
* Rain latest hour (hover to see other rain measurements)
** Current wind speed in m/s (hover to see current wind gust speed)